KFOK/FOK METAR and TAF weather

Enter ICAO airport designator
Station Type Date Time Source
KFOK METAR 2022/06/25 21:53 UTC NOAA

KFOK 252153Z 24007KT 10SM CLR 27/19 A3010 RMK AO2 SLP193 T02670189 $


Station Type Date Time Source
KFOK Decoded METAR 2022/06/25 21:53 UTC NOAA

THE GABRESKI AIRPORT, NY, United States (KFOK) 40-51N 072-37W 33M
Jun 25, 2022 - 05:53 PM EDT / 2022.06.25 2153 UTC
Wind: from the WSW (240 degrees) at 8 MPH (7 KT):0
Visibility: 10 mile(s):0
Sky conditions: clear
Temperature: 80.1 F (26.7 C)
Dew Point: 66.0 F (18.9 C)
Relative Humidity: 62%
Pressure (altimeter): 30.1 in. Hg (1019 hPa)
ob: KFOK 252153Z 24007KT 10SM CLR 27/19 A3010 RMK AO2 SLP193 T02670189
cycle: 22

Station Type Date Time Source
KFOK TAF UTC NOAA

Error!

Example: see airport list